sensor_id;sensor_type;location;lat;lon;timestamp;P1;durP1;ratioP1;P2;durP2;ratioP2
1020;SDS011;499;42.648;23.270;2022-09-03T00:00:11;6.00;;;5.40;;
1020;SDS011;499;42.648;23.270;2022-09-03T00:02:42;7.00;;;6.30;;
1020;SDS011;499;42.648;23.270;2022-09-03T00:05:14;6.93;;;5.80;;
1020;SDS011;499;42.648;23.270;2022-09-03T00:07:49;6.33;;;5.73;;
1020;SDS011;499;42.648;23.270;2022-09-03T00:10:24;6.40;;;5.50;;
1020;SDS011;499;42.648;23.270;2022-09-03T00:12:55;9.43;;;6.40;;
1020;SDS011;499;42.648;23.270;2022-09-03T00:15:26;6.70;;;6.00;;
1020;SDS011;499;42.648;23.270;2022-09-03T00:17:59;6.43;;;5.80;;
1020;SDS011;499;42.648;23.270;2022-09-03T00:20:32;7.20;;;6.50;;
1020;SDS011;499;42.648;23.270;2022-09-03T00:23:04;6.50;;;5.83;;
1020;SDS011;499;42.648;23.270;2022-09-03T00:25:34;6.73;;;5.70;;
1020;SDS011;499;42.648;23.270;2022-09-03T00:28:05;6.17;;;5.57;;
1020;SDS011;499;42.648;23.270;2022-09-03T00:30:39;6.53;;;5.93;;
1020;SDS011;499;42.648;23.270;2022-09-03T00:33:10;5.90;;;5.30;;
1020;SDS011;499;42.648;23.270;2022-09-03T00:35:43;6.17;;;5.57;;
1020;SDS011;499;42.648;23.270;2022-09-03T00:38:14;7.00;;;6.40;;
1020;SDS011;499;42.648;23.270;2022-09-03T00:40:44;8.90;;;6.80;;
1020;SDS011;499;42.648;23.270;2022-09-03T00:43:28;6.37;;;5.70;;
1020;SDS011;499;42.648;23.270;2022-09-03T00:46:12;6.40;;;5.30;;
1020;SDS011;499;42.648;23.270;2022-09-03T00:48:54;8.27;;;6.13;;
1020;SDS011;499;42.648;23.270;2022-09-03T00:51:34;7.50;;;6.47;;
1020;SDS011;499;42.648;23.270;2022-09-03T00:54:09;6.93;;;6.27;;
1020;SDS011;499;42.648;23.270;2022-09-03T00:56:43;7.23;;;6.53;;
1020;SDS011;499;42.648;23.270;2022-09-03T00:59:18;6.80;;;6.17;;
1020;SDS011;499;42.648;23.270;2022-09-03T01:01:58;7.23;;;6.53;;
1020;SDS011;499;42.648;23.270;2022-09-03T01:04:37;7.10;;;6.40;;
1020;SDS011;499;42.648;23.270;2022-09-03T01:07:13;8.23;;;7.20;;
1020;SDS011;499;42.648;23.270;2022-09-03T01:09:54;7.70;;;6.87;;
1020;SDS011;499;42.648;23.270;2022-09-03T01:12:29;6.83;;;6.13;;
1020;SDS011;499;42.648;23.270;2022-09-03T01:15:04;6.80;;;6.20;;
1020;SDS011;499;42.648;23.270;2022-09-03T01:17:40;6.70;;;5.47;;
1020;SDS011;499;42.648;23.270;2022-09-03T01:26:25;7.10;;;6.40;;
1020;SDS011;499;42.648;23.270;2022-09-03T01:31:46;6.80;;;6.10;;
1020;SDS011;499;42.648;23.270;2022-09-03T01:34:25;6.87;;;6.27;;
1020;SDS011;499;42.648;23.270;2022-09-03T01:37:05;6.67;;;6.03;;
1020;SDS011;499;42.648;23.270;2022-09-03T01:39:41;7.20;;;6.50;;
1020;SDS011;499;42.648;23.270;2022-09-03T01:42:16;6.83;;;6.13;;
1020;SDS011;499;42.648;23.270;2022-09-03T01:44:56;7.03;;;6.03;;
1020;SDS011;499;42.648;23.270;2022-09-03T01:47:40;7.30;;;6.60;;
1020;SDS011;499;42.648;23.270;2022-09-03T01:50:15;7.00;;;6.30;;
1020;SDS011;499;42.648;23.270;2022-09-03T01:52:54;7.80;;;6.13;;
1020;SDS011;499;42.648;23.270;2022-09-03T01:55:29;6.03;;;5.43;;
1020;SDS011;499;42.648;23.270;2022-09-03T01:57:59;6.90;;;5.83;;
1020;SDS011;499;42.648;23.270;2022-09-03T02:00:33;5.23;;;4.80;;
1020;SDS011;499;42.648;23.270;2022-09-03T02:03:05;5.70;;;5.20;;
1020;SDS011;499;42.648;23.270;2022-09-03T02:05:35;5.90;;;5.27;;
1020;SDS011;499;42.648;23.270;2022-09-03T02:08:03;5.67;;;5.17;;
1020;SDS011;499;42.648;23.270;2022-09-03T02:10:33;4.97;;;4.57;;
1020;SDS011;499;42.648;23.270;2022-09-03T02:13:06;5.77;;;5.17;;
1020;SDS011;499;42.648;23.270;2022-09-03T02:15:37;6.03;;;5.43;;
1020;SDS011;499;42.648;23.270;2022-09-03T02:18:11;5.40;;;4.90;;
1020;SDS011;499;42.648;23.270;2022-09-03T02:20:42;5.00;;;4.60;;
1020;SDS011;499;42.648;23.270;2022-09-03T02:23:12;5.80;;;4.93;;
1020;SDS011;499;42.648;23.270;2022-09-03T02:25:40;5.80;;;5.10;;
1020;SDS011;499;42.648;23.270;2022-09-03T02:28:10;5.40;;;4.90;;
1020;SDS011;499;42.648;23.270;2022-09-03T02:30:40;6.43;;;5.00;;
1020;SDS011;499;42.648;23.270;2022-09-03T02:33:07;5.70;;;5.10;;
1020;SDS011;499;42.648;23.270;2022-09-03T02:35:35;6.93;;;5.67;;
1020;SDS011;499;42.648;23.270;2022-09-03T02:38:08;6.30;;;5.70;;
1020;SDS011;499;42.648;23.270;2022-09-03T02:40:36;6.53;;;5.90;;
1020;SDS011;499;42.648;23.270;2022-09-03T02:43:03;7.80;;;6.33;;
1020;SDS011;499;42.648;23.270;2022-09-03T02:45:36;7.00;;;6.27;;
1020;SDS011;499;42.648;23.270;2022-09-03T02:48:10;5.70;;;5.20;;
1020;SDS011;499;42.648;23.270;2022-09-03T02:50:41;5.40;;;4.90;;
1020;SDS011;499;42.648;23.270;2022-09-03T02:53:08;5.83;;;5.23;;
1020;SDS011;499;42.648;23.270;2022-09-03T02:55:36;7.63;;;6.20;;
1020;SDS011;499;42.648;23.270;2022-09-03T02:58:03;6.07;;;5.30;;
1020;SDS011;499;42.648;23.270;2022-09-03T03:00:32;7.13;;;5.90;;
1020;SDS011;499;42.648;23.270;2022-09-03T03:03:01;6.00;;;5.40;;
1020;SDS011;499;42.648;23.270;2022-09-03T03:05:31;6.53;;;5.93;;
1020;SDS011;499;42.648;23.270;2022-09-03T03:08:12;7.23;;;6.40;;
1020;SDS011;499;42.648;23.270;2022-09-03T03:10:41;6.60;;;6.00;;
1020;SDS011;499;42.648;23.270;2022-09-03T03:13:09;6.00;;;5.40;;
1020;SDS011;499;42.648;23.270;2022-09-03T03:15:36;6.33;;;5.73;;
1020;SDS011;499;42.648;23.270;2022-09-03T03:18:04;7.00;;;6.40;;
1020;SDS011;499;42.648;23.270;2022-09-03T03:20:32;7.03;;;6.30;;
1020;SDS011;499;42.648;23.270;2022-09-03T03:23:00;8.07;;;7.27;;
1020;SDS011;499;42.648;23.270;2022-09-03T03:25:28;7.87;;;6.30;;
1020;SDS011;499;42.648;23.270;2022-09-03T03:27:57;8.10;;;7.30;;
1020;SDS011;499;42.648;23.270;2022-09-03T03:30:25;7.70;;;6.90;;
1020;SDS011;499;42.648;23.270;2022-09-03T03:32:52;8.20;;;6.73;;
1020;SDS011;499;42.648;23.270;2022-09-03T03:35:21;11.30;;;7.37;;
1020;SDS011;499;42.648;23.270;2022-09-03T03:37:49;8.27;;;7.40;;
1020;SDS011;499;42.648;23.270;2022-09-03T03:40:16;7.83;;;7.10;;
1020;SDS011;499;42.648;23.270;2022-09-03T03:42:44;8.83;;;7.83;;
1020;SDS011;499;42.648;23.270;2022-09-03T03:45:11;8.13;;;7.33;;
1020;SDS011;499;42.648;23.270;2022-09-03T03:47:38;9.93;;;8.20;;
1020;SDS011;499;42.648;23.270;2022-09-03T03:50:06;8.93;;;7.87;;
1020;SDS011;499;42.648;23.270;2022-09-03T03:52:34;8.50;;;7.60;;
1020;SDS011;499;42.648;23.270;2022-09-03T03:55:02;8.43;;;7.63;;
1020;SDS011;499;42.648;23.270;2022-09-03T03:57:30;8.50;;;7.70;;
1020;SDS011;499;42.648;23.270;2022-09-03T03:59:57;8.63;;;7.73;;
1020;SDS011;499;42.648;23.270;2022-09-03T04:02:24;8.00;;;7.20;;
1020;SDS011;499;42.648;23.270;2022-09-03T04:04:51;7.67;;;6.97;;
1020;SDS011;499;42.648;23.270;2022-09-03T04:07:18;6.67;;;6.07;;
1020;SDS011;499;42.648;23.270;2022-09-03T04:09:47;6.30;;;5.50;;
1020;SDS011;499;42.648;23.270;2022-09-03T04:12:14;6.37;;;5.77;;
1020;SDS011;499;42.648;23.270;2022-09-03T04:14:41;6.60;;;6.00;;
1020;SDS011;499;42.648;23.270;2022-09-03T04:17:08;5.23;;;4.73;;
1020;SDS011;499;42.648;23.270;2022-09-03T04:19:35;6.70;;;5.93;;
1020;SDS011;499;42.648;23.270;2022-09-03T04:22:03;6.23;;;5.63;;
1020;SDS011;499;42.648;23.270;2022-09-03T04:24:30;5.83;;;5.33;;
1020;SDS011;499;42.648;23.270;2022-09-03T04:26:58;5.87;;;5.27;;
1020;SDS011;499;42.648;23.270;2022-09-03T04:29:25;5.67;;;5.10;;
1020;SDS011;499;42.648;23.270;2022-09-03T04:31:55;5.70;;;5.20;;
1020;SDS011;499;42.648;23.270;2022-09-03T04:34:39;6.00;;;5.47;;
1020;SDS011;499;42.648;23.270;2022-09-03T04:37:06;6.50;;;5.70;;
1020;SDS011;499;42.648;23.270;2022-09-03T04:39:34;6.70;;;6.03;;
1020;SDS011;499;42.648;23.270;2022-09-03T04:42:03;7.00;;;6.03;;
1020;SDS011;499;42.648;23.270;2022-09-03T04:44:30;6.90;;;6.20;;
1020;SDS011;499;42.648;23.270;2022-09-03T04:46:58;6.40;;;5.80;;
1020;SDS011;499;42.648;23.270;2022-09-03T04:49:25;8.73;;;6.43;;
1020;SDS011;499;42.648;23.270;2022-09-03T04:51:52;9.17;;;6.67;;
1020;SDS011;499;42.648;23.270;2022-09-03T04:54:19;7.43;;;6.73;;
1020;SDS011;499;42.648;23.270;2022-09-03T04:56:46;7.10;;;6.40;;
1020;SDS011;499;42.648;23.270;2022-09-03T04:59:15;7.37;;;6.57;;
1020;SDS011;499;42.648;23.270;2022-09-03T05:01:42;8.50;;;6.60;;
1020;SDS011;499;42.648;23.270;2022-09-03T05:04:09;6.43;;;5.83;;
1020;SDS011;499;42.648;23.270;2022-09-03T05:06:36;7.00;;;6.30;;
1020;SDS011;499;42.648;23.270;2022-09-03T05:09:03;7.53;;;6.43;;
1020;SDS011;499;42.648;23.270;2022-09-03T05:11:30;6.30;;;5.70;;
1020;SDS011;499;42.648;23.270;2022-09-03T05:13:58;5.90;;;5.40;;
1020;SDS011;499;42.648;23.270;2022-09-03T05:16:27;7.20;;;6.50;;
1020;SDS011;499;42.648;23.270;2022-09-03T05:18:55;7.00;;;6.03;;
1020;SDS011;499;42.648;23.270;2022-09-03T05:21:25;5.97;;;5.37;;
1020;SDS011;499;42.648;23.270;2022-09-03T05:23:53;5.97;;;5.37;;
1020;SDS011;499;42.648;23.270;2022-09-03T05:26:20;6.57;;;5.87;;
1020;SDS011;499;42.648;23.270;2022-09-03T05:28:51;6.53;;;5.93;;
1020;SDS011;499;42.648;23.270;2022-09-03T05:31:20;5.90;;;5.33;;
1020;SDS011;499;42.648;23.270;2022-09-03T05:33:52;6.27;;;5.67;;
1020;SDS011;499;42.648;23.270;2022-09-03T05:36:22;5.43;;;4.93;;
1020;SDS011;499;42.648;23.270;2022-09-03T05:38:50;5.07;;;4.63;;
1020;SDS011;499;42.648;23.270;2022-09-03T05:41:18;5.80;;;5.30;;
1020;SDS011;499;42.648;23.270;2022-09-03T05:43:46;4.73;;;4.33;;
1020;SDS011;499;42.648;23.270;2022-09-03T05:46:17;5.33;;;4.83;;
1020;SDS011;499;42.648;23.270;2022-09-03T05:48:44;5.30;;;4.50;;
1020;SDS011;499;42.648;23.270;2022-09-03T05:51:13;6.93;;;5.53;;
1020;SDS011;499;42.648;23.270;2022-09-03T05:53:42;4.90;;;4.40;;
1020;SDS011;499;42.648;23.270;2022-09-03T05:56:11;5.53;;;5.03;;
1020;SDS011;499;42.648;23.270;2022-09-03T05:58:39;5.53;;;5.00;;
1020;SDS011;499;42.648;23.270;2022-09-03T06:01:08;5.00;;;4.50;;
1020;SDS011;499;42.648;23.270;2022-09-03T06:03:36;4.87;;;4.40;;
1020;SDS011;499;42.648;23.270;2022-09-03T06:06:04;5.20;;;4.70;;
1020;SDS011;499;42.648;23.270;2022-09-03T06:08:32;5.50;;;4.53;;
1020;SDS011;499;42.648;23.270;2022-09-03T06:11:00;4.33;;;3.93;;
1020;SDS011;499;42.648;23.270;2022-09-03T06:13:28;5.43;;;4.93;;
1020;SDS011;499;42.648;23.270;2022-09-03T06:15:55;4.97;;;4.47;;
1020;SDS011;499;42.648;23.270;2022-09-03T06:18:23;4.63;;;4.23;;
1020;SDS011;499;42.648;23.270;2022-09-03T06:20:52;6.17;;;5.57;;
1020;SDS011;499;42.648;23.270;2022-09-03T06:23:20;5.50;;;4.60;;
1020;SDS011;499;42.648;23.270;2022-09-03T06:25:55;4.50;;;4.10;;
1020;SDS011;499;42.648;23.270;2022-09-03T06:28:25;5.50;;;5.00;;
1020;SDS011;499;42.648;23.270;2022-09-03T06:30:52;4.37;;;3.70;;
1020;SDS011;499;42.648;23.270;2022-09-03T06:33:22;4.13;;;3.73;;
1020;SDS011;499;42.648;23.270;2022-09-03T06:35:51;3.70;;;3.37;;
1020;SDS011;499;42.648;23.270;2022-09-03T06:38:21;4.43;;;4.03;;
1020;SDS011;499;42.648;23.270;2022-09-03T06:40:52;3.80;;;3.40;;
1020;SDS011;499;42.648;23.270;2022-09-03T06:43:20;4.30;;;3.90;;
1020;SDS011;499;42.648;23.270;2022-09-03T06:45:54;4.70;;;4.30;;
1020;SDS011;499;42.648;23.270;2022-09-03T06:48:22;4.87;;;4.37;;
1020;SDS011;499;42.648;23.270;2022-09-03T06:50:53;4.60;;;4.20;;
1020;SDS011;499;42.648;23.270;2022-09-03T06:53:21;4.90;;;4.50;;
1020;SDS011;499;42.648;23.270;2022-09-03T06:55:54;5.20;;;4.70;;
1020;SDS011;499;42.648;23.270;2022-09-03T06:58:22;5.13;;;4.63;;
1020;SDS011;499;42.648;23.270;2022-09-03T07:00:49;5.80;;;5.20;;
1020;SDS011;499;42.648;23.270;2022-09-03T07:03:18;6.00;;;5.13;;
1020;SDS011;499;42.648;23.270;2022-09-03T07:05:46;5.40;;;4.90;;
1020;SDS011;499;42.648;23.270;2022-09-03T07:08:13;5.20;;;4.70;;
1020;SDS011;499;42.648;23.270;2022-09-03T07:10:40;6.70;;;5.37;;
1020;SDS011;499;42.648;23.270;2022-09-03T07:13:13;5.40;;;4.90;;
1020;SDS011;499;42.648;23.270;2022-09-03T07:15:40;4.77;;;4.37;;
1020;SDS011;499;42.648;23.270;2022-09-03T07:18:07;5.67;;;5.17;;
1020;SDS011;499;42.648;23.270;2022-09-03T07:20:34;5.93;;;5.40;;
1020;SDS011;499;42.648;23.270;2022-09-03T07:23:01;5.50;;;5.00;;
1020;SDS011;499;42.648;23.270;2022-09-03T07:25:28;6.17;;;5.57;;
1020;SDS011;499;42.648;23.270;2022-09-03T07:27:56;7.00;;;6.20;;
1020;SDS011;499;42.648;23.270;2022-09-03T07:30:25;5.70;;;5.20;;
1020;SDS011;499;42.648;23.270;2022-09-03T07:32:52;5.50;;;4.77;;
1020;SDS011;499;42.648;23.270;2022-09-03T07:35:19;6.00;;;5.50;;
1020;SDS011;499;42.648;23.270;2022-09-03T07:37:49;5.33;;;4.83;;
1020;SDS011;499;42.648;23.270;2022-09-03T07:40:16;5.80;;;5.30;;
1020;SDS011;499;42.648;23.270;2022-09-03T07:42:44;6.17;;;5.57;;
1020;SDS011;499;42.648;23.270;2022-09-03T07:45:12;5.10;;;4.60;;
1020;SDS011;499;42.648;23.270;2022-09-03T07:47:46;4.90;;;4.40;;
1020;SDS011;499;42.648;23.270;2022-09-03T07:50:14;5.60;;;5.07;;
1020;SDS011;499;42.648;23.270;2022-09-03T07:52:41;5.40;;;4.90;;
1020;SDS011;499;42.648;23.270;2022-09-03T07:55:08;5.77;;;5.17;;
1020;SDS011;499;42.648;23.270;2022-09-03T07:57:36;6.17;;;5.57;;
1020;SDS011;499;42.648;23.270;2022-09-03T08:00:03;5.33;;;4.83;;
1020;SDS011;499;42.648;23.270;2022-09-03T08:02:31;5.60;;;5.10;;
1020;SDS011;499;42.648;23.270;2022-09-03T08:05:00;5.70;;;5.20;;
1020;SDS011;499;42.648;23.270;2022-09-03T08:07:27;5.60;;;5.07;;
1020;SDS011;499;42.648;23.270;2022-09-03T08:09:55;6.30;;;5.70;;
1020;SDS011;499;42.648;23.270;2022-09-03T08:12:22;6.13;;;5.50;;
1020;SDS011;499;42.648;23.270;2022-09-03T08:14:49;6.57;;;5.97;;
1020;SDS011;499;42.648;23.270;2022-09-03T08:17:16;5.40;;;4.90;;
1020;SDS011;499;42.648;23.270;2022-09-03T08:19:43;5.60;;;5.10;;
1020;SDS011;499;42.648;23.270;2022-09-03T08:22:12;5.40;;;4.90;;
1020;SDS011;499;42.648;23.270;2022-09-03T08:24:39;6.47;;;5.80;;
1020;SDS011;499;42.648;23.270;2022-09-03T08:27:07;6.20;;;5.70;;
1020;SDS011;499;42.648;23.270;2022-09-03T08:29:34;6.03;;;5.43;;
1020;SDS011;499;42.648;23.270;2022-09-03T08:32:02;6.17;;;5.57;;
1020;SDS011;499;42.648;23.270;2022-09-03T08:34:29;7.87;;;6.43;;
1020;SDS011;499;42.648;23.270;2022-09-03T08:36:56;6.33;;;5.70;;
1020;SDS011;499;42.648;23.270;2022-09-03T08:39:27;6.13;;;5.53;;
1020;SDS011;499;42.648;23.270;2022-09-03T08:42:01;7.40;;;6.47;;
1020;SDS011;499;42.648;23.270;2022-09-03T08:44:48;6.70;;;6.10;;
1020;SDS011;499;42.648;23.270;2022-09-03T08:47:20;6.70;;;6.10;;
1020;SDS011;499;42.648;23.270;2022-09-03T08:49:51;6.30;;;5.70;;
1020;SDS011;499;42.648;23.270;2022-09-03T08:52:25;6.10;;;5.50;;
1020;SDS011;499;42.648;23.270;2022-09-03T08:54:59;6.20;;;5.50;;
1020;SDS011;499;42.648;23.270;2022-09-03T08:57:39;6.30;;;5.70;;
1020;SDS011;499;42.648;23.270;2022-09-03T09:00:10;6.50;;;5.90;;
1020;SDS011;499;42.648;23.270;2022-09-03T09:02:40;7.13;;;6.03;;
1020;SDS011;499;42.648;23.270;2022-09-03T09:05:19;6.63;;;6.03;;
1020;SDS011;499;42.648;23.270;2022-09-03T09:07:52;6.03;;;5.53;;
1020;SDS011;499;42.648;23.270;2022-09-03T09:10:31;6.23;;;5.63;;
1020;SDS011;499;42.648;23.270;2022-09-03T09:13:06;6.07;;;5.47;;
1020;SDS011;499;42.648;23.270;2022-09-03T09:15:42;6.40;;;5.90;;
1020;SDS011;499;42.648;23.270;2022-09-03T09:18:15;6.23;;;5.63;;
1020;SDS011;499;42.648;23.270;2022-09-03T09:20:49;5.00;;;4.60;;
1020;SDS011;499;42.648;23.270;2022-09-03T09:23:19;6.87;;;6.20;;
1020;SDS011;499;42.648;23.270;2022-09-03T09:25:54;6.30;;;5.80;;
1020;SDS011;499;42.648;23.270;2022-09-03T09:28:24;6.20;;;5.63;;
1020;SDS011;499;42.648;23.270;2022-09-03T09:30:57;6.70;;;6.10;;
1020;SDS011;499;42.648;23.270;2022-09-03T09:33:28;6.50;;;5.90;;
1020;SDS011;499;42.648;23.270;2022-09-03T09:35:58;5.30;;;4.80;;
1020;SDS011;499;42.648;23.270;2022-09-03T09:38:27;6.13;;;5.53;;
1020;SDS011;499;42.648;23.270;2022-09-03T09:41:06;5.30;;;4.80;;
1020;SDS011;499;42.648;23.270;2022-09-03T09:43:34;5.27;;;4.77;;
1020;SDS011;499;42.648;23.270;2022-09-03T09:46:05;5.00;;;4.50;;
1020;SDS011;499;42.648;23.270;2022-09-03T09:48:36;6.07;;;5.47;;
1020;SDS011;499;42.648;23.270;2022-09-03T09:51:08;5.67;;;5.17;;
1020;SDS011;499;42.648;23.270;2022-09-03T09:53:37;5.23;;;4.73;;
1020;SDS011;499;42.648;23.270;2022-09-03T09:56:06;6.03;;;5.17;;
1020;SDS011;499;42.648;23.270;2022-09-03T09:58:34;5.77;;;5.27;;
1020;SDS011;499;42.648;23.270;2022-09-03T10:01:03;6.23;;;5.63;;
1020;SDS011;499;42.648;23.270;2022-09-03T10:03:39;6.60;;;5.37;;
1020;SDS011;499;42.648;23.270;2022-09-03T10:06:14;5.17;;;4.70;;
1020;SDS011;499;42.648;23.270;2022-09-03T10:09:06;6.00;;;5.47;;
1020;SDS011;499;42.648;23.270;2022-09-03T10:11:35;6.90;;;6.20;;
1020;SDS011;499;42.648;23.270;2022-09-03T10:14:04;6.77;;;6.03;;
1020;SDS011;499;42.648;23.270;2022-09-03T10:16:39;6.00;;;5.50;;
1020;SDS011;499;42.648;23.270;2022-09-03T10:19:15;6.70;;;6.00;;
1020;SDS011;499;42.648;23.270;2022-09-03T10:21:45;6.73;;;6.03;;
1020;SDS011;499;42.648;23.270;2022-09-03T10:24:22;5.50;;;5.00;;
1020;SDS011;499;42.648;23.270;2022-09-03T10:27:05;5.77;;;5.27;;
1020;SDS011;499;42.648;23.270;2022-09-03T10:29:37;5.97;;;4.90;;
1020;SDS011;499;42.648;23.270;2022-09-03T10:32:12;5.40;;;4.93;;
1020;SDS011;499;42.648;23.270;2022-09-03T10:35:02;5.90;;;5.40;;
1020;SDS011;499;42.648;23.270;2022-09-03T10:37:37;6.20;;;5.60;;
1020;SDS011;499;42.648;23.270;2022-09-03T10:40:10;5.10;;;4.60;;
1020;SDS011;499;42.648;23.270;2022-09-03T10:42:47;6.30;;;5.70;;
1020;SDS011;499;42.648;23.270;2022-09-03T10:45:28;4.67;;;4.27;;
1020;SDS011;499;42.648;23.270;2022-09-03T10:48:05;6.60;;;6.00;;
1020;SDS011;499;42.648;23.270;2022-09-03T10:50:46;6.43;;;5.80;;
1020;SDS011;499;42.648;23.270;2022-09-03T10:53:20;5.90;;;4.80;;
1020;SDS011;499;42.648;23.270;2022-09-03T10:55:57;5.93;;;5.33;;
1020;SDS011;499;42.648;23.270;2022-09-03T10:58:35;6.10;;;5.50;;
1020;SDS011;499;42.648;23.270;2022-09-03T11:01:25;5.50;;;5.00;;
1020;SDS011;499;42.648;23.270;2022-09-03T11:04:01;5.23;;;4.73;;
1020;SDS011;499;42.648;23.270;2022-09-03T11:06:46;5.60;;;4.97;;
1020;SDS011;499;42.648;23.270;2022-09-03T11:09:19;5.80;;;5.30;;
1020;SDS011;499;42.648;23.270;2022-09-03T11:11:51;5.50;;;5.00;;
1020;SDS011;499;42.648;23.270;2022-09-03T11:14:27;4.70;;;4.30;;
1020;SDS011;499;42.648;23.270;2022-09-03T11:17:01;5.40;;;4.37;;
1020;SDS011;499;42.648;23.270;2022-09-03T11:19:33;4.03;;;3.73;;
1020;SDS011;499;42.648;23.270;2022-09-03T11:22:04;5.27;;;4.80;;
1020;SDS011;499;42.648;23.270;2022-09-03T11:24:34;6.13;;;5.53;;
1020;SDS011;499;42.648;23.270;2022-09-03T11:27:08;4.60;;;4.20;;
1020;SDS011;499;42.648;23.270;2022-09-03T11:29:49;6.10;;;4.77;;
1020;SDS011;499;42.648;23.270;2022-09-03T11:32:25;5.30;;;4.80;;
1020;SDS011;499;42.648;23.270;2022-09-03T11:35:01;4.77;;;4.30;;
1020;SDS011;499;42.648;23.270;2022-09-03T11:37:45;4.63;;;4.23;;
1020;SDS011;499;42.648;23.270;2022-09-03T11:40:18;3.97;;;3.57;;
1020;SDS011;499;42.648;23.270;2022-09-03T11:42:46;4.40;;;4.00;;
1020;SDS011;499;42.648;23.270;2022-09-03T11:45:20;4.93;;;4.53;;
1020;SDS011;499;42.648;23.270;2022-09-03T11:47:49;4.93;;;4.10;;
1020;SDS011;499;42.648;23.270;2022-09-03T11:50:20;4.47;;;4.07;;
1020;SDS011;499;42.648;23.270;2022-09-03T11:52:49;4.40;;;3.97;;
1020;SDS011;499;42.648;23.270;2022-09-03T11:55:24;4.73;;;4.23;;
1020;SDS011;499;42.648;23.270;2022-09-03T11:57:54;4.63;;;3.73;;
1020;SDS011;499;42.648;23.270;2022-09-03T12:00:24;3.80;;;3.40;;
1020;SDS011;499;42.648;23.270;2022-09-03T12:02:53;3.67;;;3.30;;
1020;SDS011;499;42.648;23.270;2022-09-03T12:05:25;4.20;;;3.80;;
1020;SDS011;499;42.648;23.270;2022-09-03T12:08:03;4.53;;;4.13;;
1020;SDS011;499;42.648;23.270;2022-09-03T12:10:44;5.03;;;4.50;;
1020;SDS011;499;42.648;23.270;2022-09-03T12:13:25;4.67;;;4.10;;
1020;SDS011;499;42.648;23.270;2022-09-03T12:16:11;4.30;;;3.90;;
1020;SDS011;499;42.648;23.270;2022-09-03T12:18:49;3.90;;;3.50;;
1020;SDS011;499;42.648;23.270;2022-09-03T12:21:19;4.50;;;4.10;;
1020;SDS011;499;42.648;23.270;2022-09-03T12:23:47;4.40;;;4.00;;
1020;SDS011;499;42.648;23.270;2022-09-03T12:26:15;3.93;;;3.47;;
1020;SDS011;499;42.648;23.270;2022-09-03T12:28:45;4.03;;;3.60;;
1020;SDS011;499;42.648;23.270;2022-09-03T12:31:17;3.70;;;3.30;;
1020;SDS011;499;42.648;23.270;2022-09-03T12:33:50;3.73;;;3.40;;
1020;SDS011;499;42.648;23.270;2022-09-03T12:36:19;4.60;;;3.53;;
1020;SDS011;499;42.648;23.270;2022-09-03T12:38:47;4.30;;;3.90;;
1020;SDS011;499;42.648;23.270;2022-09-03T12:41:24;4.40;;;4.00;;
1020;SDS011;499;42.648;23.270;2022-09-03T12:43:53;4.77;;;4.27;;
1020;SDS011;499;42.648;23.270;2022-09-03T12:46:23;4.80;;;4.00;;
1020;SDS011;499;42.648;23.270;2022-09-03T12:48:52;4.17;;;3.77;;
1020;SDS011;499;42.648;23.270;2022-09-03T12:51:20;4.70;;;3.70;;
1020;SDS011;499;42.648;23.270;2022-09-03T12:53:47;4.33;;;3.73;;
1020;SDS011;499;42.648;23.270;2022-09-03T12:56:17;4.00;;;3.60;;
1020;SDS011;499;42.648;23.270;2022-09-03T12:58:47;5.10;;;4.60;;
1020;SDS011;499;42.648;23.270;2022-09-03T13:01:18;4.80;;;4.40;;
1020;SDS011;499;42.648;23.270;2022-09-03T13:03:52;4.27;;;3.87;;
1020;SDS011;499;42.648;23.270;2022-09-03T13:06:27;5.00;;;3.73;;
1020;SDS011;499;42.648;23.270;2022-09-03T13:08:59;4.13;;;3.50;;
1020;SDS011;499;42.648;23.270;2022-09-03T13:11:27;4.50;;;4.10;;
1020;SDS011;499;42.648;23.270;2022-09-03T13:14:00;4.37;;;3.97;;
1020;SDS011;499;42.648;23.270;2022-09-03T13:19:29;3.90;;;3.50;;
1020;SDS011;499;42.648;23.270;2022-09-03T13:22:05;2.93;;;2.63;;
1020;SDS011;499;42.648;23.270;2022-09-03T13:27:36;6.60;;;3.53;;
1020;SDS011;499;42.648;23.270;2022-09-03T13:30:08;4.50;;;3.03;;
1020;SDS011;499;42.648;23.270;2022-09-03T13:32:45;3.93;;;3.43;;
1020;SDS011;499;42.648;23.270;2022-09-03T13:35:21;3.77;;;3.40;;
1020;SDS011;499;42.648;23.270;2022-09-03T13:37:54;4.27;;;3.50;;
1020;SDS011;499;42.648;23.270;2022-09-03T13:40:24;3.63;;;3.30;;
1020;SDS011;499;42.648;23.270;2022-09-03T13:43:00;3.93;;;3.40;;
1020;SDS011;499;42.648;23.270;2022-09-03T13:45:32;4.27;;;3.73;;
1020;SDS011;499;42.648;23.270;2022-09-03T13:48:07;3.50;;;3.20;;
1020;SDS011;499;42.648;23.270;2022-09-03T13:50:58;4.40;;;4.00;;
1020;SDS011;499;42.648;23.270;2022-09-03T13:53:33;4.53;;;3.63;;
1020;SDS011;499;42.648;23.270;2022-09-03T13:56:13;4.10;;;3.70;;
1020;SDS011;499;42.648;23.270;2022-09-03T13:58:47;4.33;;;3.70;;
1020;SDS011;499;42.648;23.270;2022-09-03T14:01:24;4.60;;;3.93;;
1020;SDS011;499;42.648;23.270;2022-09-03T14:04:00;4.53;;;3.73;;
1020;SDS011;499;42.648;23.270;2022-09-03T14:06:33;5.67;;;3.63;;
1020;SDS011;499;42.648;23.270;2022-09-03T14:09:09;4.33;;;3.73;;
1020;SDS011;499;42.648;23.270;2022-09-03T14:11:45;4.70;;;4.10;;
1020;SDS011;499;42.648;23.270;2022-09-03T14:14:23;4.40;;;3.90;;
1020;SDS011;499;42.648;23.270;2022-09-03T14:17:04;4.53;;;3.90;;
1020;SDS011;499;42.648;23.270;2022-09-03T14:19:46;4.40;;;4.00;;
1020;SDS011;499;42.648;23.270;2022-09-03T14:22:20;4.53;;;4.00;;
1020;SDS011;499;42.648;23.270;2022-09-03T14:24:50;4.07;;;3.40;;
1020;SDS011;499;42.648;23.270;2022-09-03T14:27:21;3.13;;;2.83;;
1020;SDS011;499;42.648;23.270;2022-09-03T14:29:52;3.97;;;3.57;;
1020;SDS011;499;42.648;23.270;2022-09-03T14:32:26;3.33;;;3.03;;
1020;SDS011;499;42.648;23.270;2022-09-03T14:41:04;3.47;;;2.60;;
1020;SDS011;499;42.648;23.270;2022-09-03T14:43:40;4.70;;;4.10;;
1020;SDS011;499;42.648;23.270;2022-09-03T14:46:29;3.80;;;3.10;;
1020;SDS011;499;42.648;23.270;2022-09-03T14:49:11;3.73;;;3.43;;
1020;SDS011;499;42.648;23.270;2022-09-03T14:52:02;3.87;;;3.37;;
1020;SDS011;499;42.648;23.270;2022-09-03T14:54:43;3.23;;;2.83;;
1020;SDS011;499;42.648;23.270;2022-09-03T14:57:37;3.93;;;3.00;;
1020;SDS011;499;42.648;23.270;2022-09-03T15:00:14;3.13;;;2.80;;
1020;SDS011;499;42.648;23.270;2022-09-03T15:06:01;3.30;;;2.67;;
1020;SDS011;499;42.648;23.270;2022-09-03T15:11:45;4.00;;;3.17;;
1020;SDS011;499;42.648;23.270;2022-09-03T15:14:17;4.17;;;2.83;;
1020;SDS011;499;42.648;23.270;2022-09-03T15:16:50;4.00;;;3.60;;
1020;SDS011;499;42.648;23.270;2022-09-03T15:19:35;3.60;;;3.17;;
1020;SDS011;499;42.648;23.270;2022-09-03T15:22:12;3.40;;;3.10;;
1020;SDS011;499;42.648;23.270;2022-09-03T15:24:55;3.43;;;2.87;;
1020;SDS011;499;42.648;23.270;2022-09-03T15:30:30;4.03;;;3.50;;
1020;SDS011;499;42.648;23.270;2022-09-03T15:33:04;4.60;;;3.60;;
1020;SDS011;499;42.648;23.270;2022-09-03T15:35:44;3.97;;;3.50;;
1020;SDS011;499;42.648;23.270;2022-09-03T15:38:27;3.27;;;2.90;;
1020;SDS011;499;42.648;23.270;2022-09-03T15:41:08;4.00;;;3.53;;
1020;SDS011;499;42.648;23.270;2022-09-03T15:43:43;4.80;;;4.13;;
1020;SDS011;499;42.648;23.270;2022-09-03T15:46:34;4.00;;;3.50;;
1020;SDS011;499;42.648;23.270;2022-09-03T15:49:15;5.53;;;4.17;;
1020;SDS011;499;42.648;23.270;2022-09-03T15:52:02;4.30;;;3.40;;
1020;SDS011;499;42.648;23.270;2022-09-03T15:54:37;4.43;;;3.70;;
1020;SDS011;499;42.648;23.270;2022-09-03T15:57:11;5.47;;;3.63;;
1020;SDS011;499;42.648;23.270;2022-09-03T15:59:46;4.43;;;3.63;;
1020;SDS011;499;42.648;23.270;2022-09-03T16:02:22;4.80;;;4.33;;
1020;SDS011;499;42.648;23.270;2022-09-03T16:05:02;5.20;;;4.07;;
1020;SDS011;499;42.648;23.270;2022-09-03T16:07:40;4.53;;;4.10;;
1020;SDS011;499;42.648;23.270;2022-09-03T16:10:40;5.07;;;4.00;;
1020;SDS011;499;42.648;23.270;2022-09-03T16:16:21;4.47;;;3.47;;
1020;SDS011;499;42.648;23.270;2022-09-03T16:18:58;4.90;;;4.40;;